KDNS/DNS METAR and TAF weather

Enter ICAO airport designator
Station Type Date Time Source
KDNS METAR 2021/05/10 22:15 UTC NOAA

KDNS 102215Z AUTO 01011KT 10SM SCT080 16/M04 A3014 RMK AO2


Station Type Date Time Source
KDNS Decoded METAR 2021/05/10 22:15 UTC NOAA

Denison, IA, United States (KDNS) 41-59N 095-23W
May 10, 2021 - 06:15 PM EDT / 2021.05.10 2215 UTC
Wind: from the N (010 degrees) at 13 MPH (11 KT):0
Visibility: 10 mile(s):0
Sky conditions: partly cloudy
Temperature: 60 F (16 C)
Dew Point: 24 F (-4 C)
Relative Humidity: 25%
Pressure (altimeter): 30.14 in. Hg (1020 hPa)
ob: KDNS 102215Z AUTO 01011KT 10SM SCT080 16/M04 A3014 RMK AO2
cycle: 22

Station Type Date Time Source
KDNS TAF UTC NOAA

Error!

Example: see airport list